Green Stars — V7VZ5 — position and weather

sailwx.info

Track history (hours):
 
Tides and Currents Weather Stations Pressure Air Temp Water Temp Dewpoint Dewpoint Depression Visibility Wind Speed Wind Dir Waves Ship Positions

Green Stars

Last reported at 2017-Jul-20 20:05 UTC. Time now 2017-Jul-24 02:45 UTC.
Position N 01°18' E 103°21'.

Length 182 m; draft 7 m.

Type: Tanker. MMSI: 538004247.

Date/timePositionNaut miles runAvg speedWind from/ knotsBaromVisibWave heightAir tempDewpointWater temp
2017-Jul-20 20:05N 01°18' E 103°21'115.0
2017-Jul-20 20:00N 01°17' E 103°22'714.5
2017-Jul-20 19:30N 01°14' E 103°29'714.2
2017-Jul-20 19:01N 01°12' E 103°35'612.9
2017-Jul-20 18:31N 01°10' E 103°41'510.0
2017-Jul-20 18:00N 01°10' E 103°46'5 9.6
2017-Jul-20 17:30N 01°12' E 103°51'3 6.3
2017-Jul-20 17:00N 01°14' E 103°53'1 2.2
2017-Jul-20 16:29N 01°15' E 103°53'0 0.0
2017-Jul-20 15:58N 01°15' E 103°53'0 0.0
2017-Jul-20 15:28N 01°15' E 103°53'0 0.0
2017-Jul-20 14:59N 01°15' E 103°53'0 0.0
2017-Jul-20 13:59N 01°15' E 103°53'0 0.0
2017-Jul-20 13:29N 01°15' E 103°53'0 0.2
2017-Jul-20 12:53N 01°15' E 103°53'0 0.1
2017-Jul-20 11:46N 01°15' E 103°53'0 0.2
2017-Jul-20 11:29N 01°15' E 103°53'0 0.1
2017-Jul-20 10:59N 01°15' E 103°53'0 0.0
2017-Jul-20 10:28N 01°15' E 103°53'0 0.0
2017-Jul-20 09:58N 01°15' E 103°53'0 0.0
2017-Jul-20 09:29N 01°15' E 103°53'0 0.0
2017-Jul-20 08:58N 01°15' E 103°53'0 0.1
2017-Jul-20 08:28N 01°15' E 103°53'0 0.0
2017-Jul-20 07:58N 01°15' E 103°53'0 0.1
2017-Jul-20 06:13N 01°15' E 103°53'0 0.0
2017-Jul-20 04:34N 01°15' E 103°53'0 0.1
2017-Jul-20 04:28N 01°15' E 103°53'0 0.1
2017-Jul-20 03:58N 01°15' E 103°53'0 0.9
2017-Jul-20 03:30N 01°15' E 103°54'4 6.9
2017-Jul-20 02:56N 01°16' E 103°58'9 4.6
2017-Jul-20 01:06N 01°18' E 104°06'1 3.2
2017-Jul-20 00:50N 01°18' E 104°06'1 3.6
2017-Jul-20 00:26N 01°20' E 104°05'3 5.7
2017-Jul-19 23:59N 01°21' E 104°03'  
2017-Jul-17 09:53N 01°24' E 104°00'5 9.7
2017-Jul-17 09:25N 01°21' E 104°03'3 6.9
2017-Jul-17 08:56N 01°19' E 104°06'4 0.3
2017-Jul-16 20:43N 01°18' E 104°10'2 0.0
2017-Jul-14 21:56N 01°19' E 104°09'1 2.3
2017-Jul-14 21:30N 01°19' E 104°09'0 0.0
2017-Jul-12 21:53N 01°19' E 104°10'0 0.0
2017-Jul-12 21:20N 01°19' E 104°10'0 0.2
2017-Jul-12 20:59N 01°19' E 104°10'2 2.2
2017-Jul-12 20:11N 01°19' E 104°08'0 0.2
2017-Jul-12 19:49N 01°19' E 104°08'5 0.1
2017-Jul-11 11:17N 01°16' E 104°05'2 6.5
2017-Jul-11 10:58N 01°15' E 104°03'510.1
2017-Jul-11 10:28N 01°14' E 103°58'510.5
2017-Jul-11 10:00N 01°12' E 103°53'4 8.1
2017-Jul-11 09:30N 01°10' E 103°50'4 8.4
2017-Jul-11 09:00N 01°08' E 103°46'510.1
2017-Jul-11 08:30N 01°04' E 103°42'4 9.0
2017-Jul-11 08:00N 01°03' E 103°38'5 9.5
2017-Jul-11 07:30N 01°05' E 103°34'5 9.8
2017-Jul-11 07:00N 01°08' E 103°30'611.0
2017-Jul-11 06:29N 01°11' E 103°25'612.3
2017-Jul-11 06:00N 01°15' E 103°21'  
Track history (hours):
 
Tides and Currents Weather Stations Pressure Air Temp Water Temp Dewpoint Dewpoint Depression Visibility Wind Speed Wind Dir Waves Ship Positions

Green Stars

Last reported at 2017-Jul-20 20:05 UTC. Time now 2017-Jul-24 02:45 UTC.
Position N 01°18' E 103°21'.

Length 182 m; draft 7 m.

Type: Tanker. MMSI: 538004247.

Date/timePositionNaut miles runAvg speedWind from/ knotsBaromVisibWave heightAir tempDewpointWater temp
2017-Jul-20 20:05N 01°18' E 103°21'115.0
2017-Jul-20 20:00N 01°17' E 103°22'714.5
2017-Jul-20 19:30N 01°14' E 103°29'714.2
2017-Jul-20 19:01N 01°12' E 103°35'612.9
2017-Jul-20 18:31N 01°10' E 103°41'510.0
2017-Jul-20 18:00N 01°10' E 103°46'5 9.6
2017-Jul-20 17:30N 01°12' E 103°51'3 6.3
2017-Jul-20 17:00N 01°14' E 103°53'1 2.2
2017-Jul-20 16:29N 01°15' E 103°53'0 0.0
2017-Jul-20 15:58N 01°15' E 103°53'0 0.0
2017-Jul-20 15:28N 01°15' E 103°53'0 0.0
2017-Jul-20 14:59N 01°15' E 103°53'0 0.0
2017-Jul-20 13:59N 01°15' E 103°53'0 0.0
2017-Jul-20 13:29N 01°15' E 103°53'0 0.2
2017-Jul-20 12:53N 01°15' E 103°53'0 0.1
2017-Jul-20 11:46N 01°15' E 103°53'0 0.2
2017-Jul-20 11:29N 01°15' E 103°53'0 0.1
2017-Jul-20 10:59N 01°15' E 103°53'0 0.0
2017-Jul-20 10:28N 01°15' E 103°53'0 0.0
2017-Jul-20 09:58N 01°15' E 103°53'0 0.0
2017-Jul-20 09:29N 01°15' E 103°53'0 0.0
2017-Jul-20 08:58N 01°15' E 103°53'0 0.1
2017-Jul-20 08:28N 01°15' E 103°53'0 0.0
2017-Jul-20 07:58N 01°15' E 103°53'0 0.1
2017-Jul-20 06:13N 01°15' E 103°53'0 0.0
2017-Jul-20 04:34N 01°15' E 103°53'0 0.1
2017-Jul-20 04:28N 01°15' E 103°53'0 0.1
2017-Jul-20 03:58N 01°15' E 103°53'0 0.9
2017-Jul-20 03:30N 01°15' E 103°54'4 6.9
2017-Jul-20 02:56N 01°16' E 103°58'9 4.6
2017-Jul-20 01:06N 01°18' E 104°06'1 3.2
2017-Jul-20 00:50N 01°18' E 104°06'1 3.6
2017-Jul-20 00:26N 01°20' E 104°05'3 5.7
2017-Jul-19 23:59N 01°21' E 104°03'  
2017-Jul-17 09:53N 01°24' E 104°00'5 9.7
2017-Jul-17 09:25N 01°21' E 104°03'3 6.9
2017-Jul-17 08:56N 01°19' E 104°06'4 0.3
2017-Jul-16 20:43N 01°18' E 104°10'2 0.0
2017-Jul-14 21:56N 01°19' E 104°09'1 2.3
2017-Jul-14 21:30N 01°19' E 104°09'0 0.0
2017-Jul-12 21:53N 01°19' E 104°10'0 0.0
2017-Jul-12 21:20N 01°19' E 104°10'0 0.2
2017-Jul-12 20:59N 01°19' E 104°10'2 2.2
2017-Jul-12 20:11N 01°19' E 104°08'0 0.2
2017-Jul-12 19:49N 01°19' E 104°08'5 0.1
2017-Jul-11 11:17N 01°16' E 104°05'2 6.5
2017-Jul-11 10:58N 01°15' E 104°03'510.1
2017-Jul-11 10:28N 01°14' E 103°58'510.5
2017-Jul-11 10:00N 01°12' E 103°53'4 8.1
2017-Jul-11 09:30N 01°10' E 103°50'4 8.4
2017-Jul-11 09:00N 01°08' E 103°46'510.1
2017-Jul-11 08:30N 01°04' E 103°42'4 9.0
2017-Jul-11 08:00N 01°03' E 103°38'5 9.5
2017-Jul-11 07:30N 01°05' E 103°34'5 9.8
2017-Jul-11 07:00N 01°08' E 103°30'611.0
2017-Jul-11 06:29N 01°11' E 103°25'612.3
2017-Jul-11 06:00N 01°15' E 103°21'  

Dump ship's entire track history